sensor_id;sensor_type;location;lat;lon;timestamp;pressure;altitude;pressure_sealevel;temperature;humidity
35908;BME280;22003;50.320;8.054;2022-12-17T03:33:16;99830.28;;;-11.82;100.00
35908;BME280;22003;50.320;8.054;2022-12-17T03:36:32;100431.56;;;-7.86;100.00
35908;BME280;22003;50.320;8.054;2022-12-17T03:39:47;100431.47;;;-7.95;100.00
35908;BME280;22003;50.320;8.054;2022-12-17T05:02:35;100483.75;;;-7.98;100.00
35908;BME280;22003;50.320;8.054;2022-12-17T05:05:19;100496.81;;;-7.75;100.00
35908;BME280;22003;50.320;8.054;2022-12-17T05:08:03;100475.56;;;-7.47;100.00
35908;BME280;22003;50.320;8.054;2022-12-17T05:10:47;100503.72;;;-7.68;100.00
35908;BME280;22003;50.320;8.054;2022-12-17T05:13:31;100499.38;;;-7.72;100.00
35908;BME280;22003;50.320;8.054;2022-12-17T05:16:15;100510.56;;;-7.67;100.00
35908;BME280;22003;50.320;8.054;2022-12-17T05:18:59;100515.97;;;-7.33;100.00
35908;BME280;22003;50.320;8.054;2022-12-17T05:21:43;100506.38;;;-7.57;100.00
35908;BME280;22003;50.320;8.054;2022-12-17T05:24:27;100521.69;;;-7.74;100.00
35908;BME280;22003;50.320;8.054;2022-12-17T05:27:11;100508.66;;;-7.92;100.00
35908;BME280;22003;50.320;8.054;2022-12-17T05:29:55;100518.84;;;-8.02;100.00
35908;BME280;22003;50.320;8.054;2022-12-17T05:32:39;100496.41;;;-8.21;100.00
35908;BME280;22003;50.320;8.054;2022-12-17T05:35:34;100506.81;;;-8.09;100.00
35908;BME280;22003;50.320;8.054;2022-12-17T05:38:17;100517.25;;;-7.93;100.00
35908;BME280;22003;50.320;8.054;2022-12-17T05:41:01;100501.66;;;-8.06;100.00
35908;BME280;22003;50.320;8.054;2022-12-17T05:43:59;100522.44;;;-7.87;100.00
35908;BME280;22003;50.320;8.054;2022-12-17T05:46:43;100498.34;;;-7.99;100.00
35908;BME280;22003;50.320;8.054;2022-12-17T05:49:26;100525.91;;;-7.81;100.00
35908;BME280;22003;50.320;8.054;2022-12-17T05:52:11;100528.34;;;-7.96;100.00
35908;BME280;22003;50.320;8.054;2022-12-17T05:54:54;100530.91;;;-7.94;100.00
35908;BME280;22003;50.320;8.054;2022-12-17T05:57:38;100505.19;;;-7.96;100.00
35908;BME280;22003;50.320;8.054;2022-12-17T06:00:27;100535.50;;;-7.61;100.00
35908;BME280;22003;50.320;8.054;2022-12-17T06:03:11;100548.50;;;-7.48;100.00
35908;BME280;22003;50.320;8.054;2022-12-17T06:05:55;100539.69;;;-7.73;100.00
35908;BME280;22003;50.320;8.054;2022-12-17T06:08:39;100524.06;;;-7.94;100.00
35908;BME280;22003;50.320;8.054;2022-12-17T06:11:23;100543.81;;;-7.91;100.00
35908;BME280;22003;50.320;8.054;2022-12-17T06:14:07;100552.41;;;-7.91;100.00
35908;BME280;22003;50.320;8.054;2022-12-17T06:16:51;100560.97;;;-7.90;100.00
35908;BME280;22003;50.320;8.054;2022-12-17T06:19:46;100553.50;;;-7.64;100.00
35908;BME280;22003;50.320;8.054;2022-12-17T06:22:30;100570.44;;;-7.86;100.00
35908;BME280;22003;50.320;8.054;2022-12-17T06:25:13;100559.19;;;-7.96;100.00
35908;BME280;22003;50.320;8.054;2022-12-17T06:27:59;100572.31;;;-7.67;100.00
35908;BME280;22003;50.320;8.054;2022-12-17T06:30:51;100572.09;;;-7.93;100.00
35908;BME280;22003;50.320;8.054;2022-12-17T06:33:35;100590.50;;;-7.50;100.00
35908;BME280;22003;50.320;8.054;2022-12-17T06:36:19;100579.22;;;-7.66;100.00
35908;BME280;22003;50.320;8.054;2022-12-17T06:39:03;100585.13;;;-7.75;100.00
35908;BME280;22003;50.320;8.054;2022-12-17T06:41:47;100568.75;;;-7.84;100.00
35908;BME280;22003;50.320;8.054;2022-12-17T06:44:48;100589.41;;;-7.77;100.00
35908;BME280;22003;50.320;8.054;2022-12-17T06:47:32;100596.75;;;-7.18;100.00
35908;BME280;22003;50.320;8.054;2022-12-17T06:50:16;100601.91;;;-7.19;100.00
35908;BME280;22003;50.320;8.054;2022-12-17T06:53:04;100600.03;;;-7.38;100.00
35908;BME280;22003;50.320;8.054;2022-12-17T06:55:49;100605.66;;;-7.78;100.00
35908;BME280;22003;50.320;8.054;2022-12-17T06:58:33;100596.47;;;-7.53;100.00
35908;BME280;22003;50.320;8.054;2022-12-17T07:01:17;100605.72;;;-7.75;100.00
35908;BME280;22003;50.320;8.054;2022-12-17T07:04:02;100605.06;;;-7.52;100.00
35908;BME280;22003;50.320;8.054;2022-12-17T07:06:46;100574.22;;;-7.49;100.00
35908;BME280;22003;50.320;8.054;2022-12-17T07:09:29;100594.66;;;-7.63;100.00
35908;BME280;22003;50.320;8.054;2022-12-17T07:12:13;100622.47;;;-7.27;100.00
35908;BME280;22003;50.320;8.054;2022-12-17T07:14:57;100628.41;;;-7.31;100.00
35908;BME280;22003;50.320;8.054;2022-12-17T07:17:41;100584.28;;;-7.75;100.00
35908;BME280;22003;50.320;8.054;2022-12-17T07:20:25;100643.06;;;-7.25;100.00
35908;BME280;22003;50.320;8.054;2022-12-17T07:23:10;100646.44;;;-7.32;100.00
35908;BME280;22003;50.320;8.054;2022-12-17T07:25:56;100642.81;;;-7.51;100.00
35908;BME280;22003;50.320;8.054;2022-12-17T07:28:40;100646.34;;;-7.38;100.00
35908;BME280;22003;50.320;8.054;2022-12-17T07:31:23;100659.22;;;-7.43;100.00
35908;BME280;22003;50.320;8.054;2022-12-17T07:34:18;100650.53;;;-7.50;100.00
35908;BME280;22003;50.320;8.054;2022-12-17T07:37:02;100660.13;;;-7.36;100.00
35908;BME280;22003;50.320;8.054;2022-12-17T07:39:46;100659.16;;;-7.46;100.00
35908;BME280;22003;50.320;8.054;2022-12-17T07:42:30;100671.94;;;-7.57;100.00
35908;BME280;22003;50.320;8.054;2022-12-17T07:45:15;100670.31;;;-7.46;100.00
35908;BME280;22003;50.320;8.054;2022-12-17T07:47:59;100673.69;;;-7.54;100.00
35908;BME280;22003;50.320;8.054;2022-12-17T07:50:47;100678.97;;;-7.39;100.00
35908;BME280;22003;50.320;8.054;2022-12-17T07:53:32;100664.41;;;-7.35;100.00
35908;BME280;22003;50.320;8.054;2022-12-17T07:56:16;100679.84;;;-7.35;100.00
35908;BME280;22003;50.320;8.054;2022-12-17T07:59:00;100681.31;;;-7.62;100.00
35908;BME280;22003;50.320;8.054;2022-12-17T08:01:44;100687.41;;;-7.54;100.00
35908;BME280;22003;50.320;8.054;2022-12-17T08:04:28;100689.88;;;-7.61;100.00
35908;BME280;22003;50.320;8.054;2022-12-17T08:07:12;100697.94;;;-7.29;100.00
35908;BME280;22003;50.320;8.054;2022-12-17T08:09:56;100690.06;;;-7.46;100.00
35908;BME280;22003;50.320;8.054;2022-12-17T08:12:40;100677.28;;;-7.35;100.00
35908;BME280;22003;50.320;8.054;2022-12-17T08:15:24;100694.47;;;-7.33;100.00
35908;BME280;22003;50.320;8.054;2022-12-17T08:18:08;100704.03;;;-7.21;100.00
35908;BME280;22003;50.320;8.054;2022-12-17T08:20:53;100707.31;;;-7.34;100.00
35908;BME280;22003;50.320;8.054;2022-12-17T08:23:37;100707.47;;;-7.21;100.00
35908;BME280;22003;50.320;8.054;2022-12-17T08:26:21;100710.38;;;-6.82;100.00
35908;BME280;22003;50.320;8.054;2022-12-17T08:29:04;100718.03;;;-6.93;100.00
35908;BME280;22003;50.320;8.054;2022-12-17T08:31:48;100717.13;;;-6.97;100.00
35908;BME280;22003;50.320;8.054;2022-12-17T08:34:32;100716.16;;;-7.08;100.00
35908;BME280;22003;50.320;8.054;2022-12-17T08:37:16;100723.09;;;-7.02;100.00
35908;BME280;22003;50.320;8.054;2022-12-17T08:40:00;100720.56;;;-6.98;100.00
35908;BME280;22003;50.320;8.054;2022-12-17T08:42:44;100706.78;;;-7.00;100.00
35908;BME280;22003;50.320;8.054;2022-12-17T08:45:28;100716.72;;;-7.39;100.00
35908;BME280;22003;50.320;8.054;2022-12-17T08:48:12;100743.88;;;-7.66;100.00
35908;BME280;22003;50.320;8.054;2022-12-17T08:50:56;100709.16;;;-8.00;100.00
35908;BME280;22003;50.320;8.054;2022-12-17T08:53:40;100753.28;;;-7.68;100.00
35908;BME280;22003;50.320;8.054;2022-12-17T08:56:25;100738.38;;;-7.18;100.00
35908;BME280;22003;50.320;8.054;2022-12-17T08:59:09;100744.75;;;-6.82;100.00
35908;BME280;22003;50.320;8.054;2022-12-17T09:01:53;100740.41;;;-6.87;100.00
35908;BME280;22003;50.320;8.054;2022-12-17T09:04:37;100745.19;;;-7.23;100.00
35908;BME280;22003;50.320;8.054;2022-12-17T09:07:21;100742.00;;;-6.99;100.00
35908;BME280;22003;50.320;8.054;2022-12-17T09:10:05;100755.75;;;-6.95;100.00
35908;BME280;22003;50.320;8.054;2022-12-17T09:12:49;100754.63;;;-7.23;100.00
35908;BME280;22003;50.320;8.054;2022-12-17T09:15:33;100738.03;;;-7.54;100.00
35908;BME280;22003;50.320;8.054;2022-12-17T09:18:18;100758.00;;;-7.29;100.00
35908;BME280;22003;50.320;8.054;2022-12-17T09:21:03;100755.81;;;-6.91;100.00
35908;BME280;22003;50.320;8.054;2022-12-17T09:23:47;100759.19;;;-6.99;100.00
35908;BME280;22003;50.320;8.054;2022-12-17T09:26:30;100761.19;;;-6.66;100.00
35908;BME280;22003;50.320;8.054;2022-12-17T09:29:28;100757.94;;;-6.39;100.00
35908;BME280;22003;50.320;8.054;2022-12-17T09:32:12;100732.91;;;-6.55;100.00
35908;BME280;22003;50.320;8.054;2022-12-17T09:34:57;100758.94;;;-6.22;100.00
35908;BME280;22003;50.320;8.054;2022-12-17T09:37:41;100759.69;;;-6.33;100.00
35908;BME280;22003;50.320;8.054;2022-12-17T09:40:25;100739.59;;;-6.82;100.00
35908;BME280;22003;50.320;8.054;2022-12-17T09:43:41;100766.22;;;-6.78;100.00
35908;BME280;22003;50.320;8.054;2022-12-17T09:46:46;100736.03;;;-6.95;100.00
35908;BME280;22003;50.320;8.054;2022-12-17T09:49:33;100757.47;;;-6.96;100.00
35908;BME280;22003;50.320;8.054;2022-12-17T09:52:27;100747.34;;;-6.77;100.00
35908;BME280;22003;50.320;8.054;2022-12-17T09:55:19;100761.38;;;-6.39;100.00
35908;BME280;22003;50.320;8.054;2022-12-17T09:58:05;100764.84;;;-6.33;100.00
35908;BME280;22003;50.320;8.054;2022-12-17T10:00:49;100754.53;;;-6.33;100.00
35908;BME280;22003;50.320;8.054;2022-12-17T10:03:34;100751.88;;;-6.46;100.00
35908;BME280;22003;50.320;8.054;2022-12-17T10:06:21;100754.84;;;-7.05;100.00
35908;BME280;22003;50.320;8.054;2022-12-17T10:09:11;100766.03;;;-7.00;100.00
35908;BME280;22003;50.320;8.054;2022-12-17T10:11:58;100765.69;;;-6.38;100.00
35908;BME280;22003;50.320;8.054;2022-12-17T10:14:43;100768.34;;;-6.27;100.00
35908;BME280;22003;50.320;8.054;2022-12-17T10:17:27;100773.50;;;-6.25;100.00
35908;BME280;22003;50.320;8.054;2022-12-17T10:20:30;100787.22;;;-6.31;100.00
35908;BME280;22003;50.320;8.054;2022-12-17T10:23:28;100785.50;;;-6.30;100.00
35908;BME280;22003;50.320;8.054;2022-12-17T10:26:39;100779.38;;;-6.45;100.00
35908;BME280;22003;50.320;8.054;2022-12-17T10:29:30;100784.88;;;-5.94;100.00
35908;BME280;22003;50.320;8.054;2022-12-17T10:34:59;100788.75;;;-6.56;100.00
35908;BME280;22003;50.320;8.054;2022-12-17T10:37:45;100782.59;;;-6.73;100.00
35908;BME280;22003;50.320;8.054;2022-12-17T10:40:31;100778.72;;;-6.19;100.00
35908;BME280;22003;50.320;8.054;2022-12-17T10:43:29;100790.47;;;-6.56;100.00
35908;BME280;22003;50.320;8.054;2022-12-17T10:46:31;100794.97;;;-6.28;100.00
35908;BME280;22003;50.320;8.054;2022-12-17T10:52:29;100798.84;;;-5.39;100.00
35908;BME280;22003;50.320;8.054;2022-12-17T10:55:26;100792.81;;;-5.48;99.29
35908;BME280;22003;50.320;8.054;2022-12-17T10:58:27;100798.94;;;-5.17;100.00
35908;BME280;22003;50.320;8.054;2022-12-17T11:01:24;100764.25;;;-5.88;98.77
35908;BME280;22003;50.320;8.054;2022-12-17T11:04:35;100802.16;;;-5.76;99.74
35908;BME280;22003;50.320;8.054;2022-12-17T11:07:23;100804.94;;;-5.26;98.68
35908;BME280;22003;50.320;8.054;2022-12-17T11:10:16;100803.06;;;-5.64;97.66
35908;BME280;22003;50.320;8.054;2022-12-17T11:15:57;100804.06;;;-5.37;98.10
35908;BME280;22003;50.320;8.054;2022-12-17T11:18:53;100804.69;;;-5.93;98.04
35908;BME280;22003;50.320;8.054;2022-12-17T11:21:44;100803.75;;;-6.00;100.00
35908;BME280;22003;50.320;8.054;2022-12-17T11:24:38;100793.94;;;-6.54;100.00
35908;BME280;22003;50.320;8.054;2022-12-17T11:27:28;100814.00;;;-6.14;100.00
35908;BME280;22003;50.320;8.054;2022-12-17T11:30:15;100790.09;;;-5.73;100.00
35908;BME280;22003;50.320;8.054;2022-12-17T11:33:18;100821.31;;;-5.22;100.00
35908;BME280;22003;50.320;8.054;2022-12-17T11:36:18;100811.00;;;-5.16;98.25
35908;BME280;22003;50.320;8.054;2022-12-17T11:39:18;100813.09;;;-6.19;98.70
35908;BME280;22003;50.320;8.054;2022-12-17T11:48:45;100798.94;;;-5.22;98.70
35908;BME280;22003;50.320;8.054;2022-12-17T11:51:40;100805.88;;;-4.95;98.80
35908;BME280;22003;50.320;8.054;2022-12-17T12:00:41;100807.59;;;-5.09;96.79
35908;BME280;22003;50.320;8.054;2022-12-17T12:03:58;100759.28;;;-5.28;96.54
35908;BME280;22003;50.320;8.054;2022-12-17T12:06:47;100809.38;;;-4.71;96.01
35908;BME280;22003;50.320;8.054;2022-12-17T12:09:47;100811.09;;;-4.18;96.01
35908;BME280;22003;50.320;8.054;2022-12-17T12:12:37;100801.63;;;-4.41;94.53
35908;BME280;22003;50.320;8.054;2022-12-17T12:19:14;100799.91;;;-4.66;93.68
35908;BME280;22003;50.320;8.054;2022-12-17T12:22:17;100784.31;;;-5.00;92.79
35908;BME280;22003;50.320;8.054;2022-12-17T12:25:20;100797.31;;;-4.68;93.22
35908;BME280;22003;50.320;8.054;2022-12-17T12:28:20;100795.50;;;-5.19;91.90
35908;BME280;22003;50.320;8.054;2022-12-17T12:34:18;100809.19;;;-5.40;99.36
35908;BME280;22003;50.320;8.054;2022-12-17T12:37:05;100799.78;;;-5.18;96.55
35908;BME280;22003;50.320;8.054;2022-12-17T12:40:06;100810.72;;;-5.77;98.49
35908;BME280;22003;50.320;8.054;2022-12-17T12:45:48;100765.13;;;-5.81;99.46
35908;BME280;22003;50.320;8.054;2022-12-17T12:48:59;100799.56;;;-5.75;99.03
35908;BME280;22003;50.320;8.054;2022-12-17T12:51:48;100803.59;;;-6.23;100.00
35908;BME280;22003;50.320;8.054;2022-12-17T12:58:01;100798.84;;;-5.46;97.29
35908;BME280;22003;50.320;8.054;2022-12-17T13:06:46;100798.94;;;-5.17;99.64
35908;BME280;22003;50.320;8.054;2022-12-17T13:12:26;100797.94;;;-5.58;97.24
35908;BME280;22003;50.320;8.054;2022-12-17T13:14:44;100787.72;;;-5.32;98.71
35908;BME280;22003;50.320;8.054;2022-12-17T13:19:42;100792.72;;;-5.67;100.00
35908;BME280;22003;50.320;8.054;2022-12-17T13:22:10;100791.00;;;-5.68;100.00
35908;BME280;22003;50.320;8.054;2022-12-17T13:24:36;100775.44;;;-5.86;100.00
35908;BME280;22003;50.320;8.054;2022-12-17T13:27:02;100726.31;;;-6.10;100.00
35908;BME280;22003;50.320;8.054;2022-12-17T13:29:31;100789.34;;;-5.55;100.00
35908;BME280;22003;50.320;8.054;2022-12-17T13:43:01;100788.56;;;-5.33;98.30
35908;BME280;22003;50.320;8.054;2022-12-17T13:45:26;100784.13;;;-5.72;98.28
35908;BME280;22003;50.320;8.054;2022-12-17T13:47:57;100765.19;;;-5.68;98.97
35908;BME280;22003;50.320;8.054;2022-12-17T13:50:25;100797.19;;;-5.32;99.30
35908;BME280;22003;50.320;8.054;2022-12-17T13:52:51;100781.63;;;-5.49;99.28
35908;BME280;22003;50.320;8.054;2022-12-17T13:55:20;100796.03;;;-5.89;98.68
35908;BME280;22003;50.320;8.054;2022-12-17T13:57:48;100722.78;;;-6.26;99.92
35908;BME280;22003;50.320;8.054;2022-12-17T14:00:22;100801.84;;;-6.30;100.00
35908;BME280;22003;50.320;8.054;2022-12-17T14:02:49;100795.19;;;-5.99;100.00
35908;BME280;22003;50.320;8.054;2022-12-17T14:05:26;100795.31;;;-5.68;100.00
35908;BME280;22003;50.320;8.054;2022-12-17T14:07:56;100795.22;;;-5.91;100.00
35908;BME280;22003;50.320;8.054;2022-12-17T14:10:23;100787.47;;;-5.88;99.03
35908;BME280;22003;50.320;8.054;2022-12-17T14:12:49;100786.56;;;-6.01;99.92
35908;BME280;22003;50.320;8.054;2022-12-17T14:15:22;100802.78;;;-6.19;100.00
35908;BME280;22003;50.320;8.054;2022-12-17T14:17:49;100789.81;;;-6.32;100.00
35908;BME280;22003;50.320;8.054;2022-12-17T14:20:17;100801.91;;;-6.19;100.00
35908;BME280;22003;50.320;8.054;2022-12-17T14:22:53;100797.59;;;-6.23;100.00
35908;BME280;22003;50.320;8.054;2022-12-17T14:25:22;100775.22;;;-6.26;100.00
35908;BME280;22003;50.320;8.054;2022-12-17T14:27:53;100807.94;;;-6.19;100.00
35908;BME280;22003;50.320;8.054;2022-12-17T14:30:40;100807.91;;;-6.23;100.00
35908;BME280;22003;50.320;8.054;2022-12-17T14:33:33;100821.69;;;-6.18;100.00
35908;BME280;22003;50.320;8.054;2022-12-17T14:36:02;100818.72;;;-6.69;100.00
35908;BME280;22003;50.320;8.054;2022-12-17T14:38:29;100823.75;;;-6.81;100.00
35908;BME280;22003;50.320;8.054;2022-12-17T14:41:00;100816.66;;;-7.05;100.00
35908;BME280;22003;50.320;8.054;2022-12-17T14:43:54;100801.84;;;-7.24;100.00
35908;BME280;22003;50.320;8.054;2022-12-17T14:46:20;100815.81;;;-7.04;100.00
35908;BME280;22003;50.320;8.054;2022-12-17T14:48:53;100816.84;;;-6.83;100.00
35908;BME280;22003;50.320;8.054;2022-12-17T14:51:50;100821.81;;;-7.02;100.00
35908;BME280;22003;50.320;8.054;2022-12-17T14:54:18;100738.69;;;-7.71;100.00
35908;BME280;22003;50.320;8.054;2022-12-17T14:56:46;100826.44;;;-6.72;100.00
35908;BME280;22003;50.320;8.054;2022-12-17T15:01:46;100783.22;;;-6.97;100.00
35908;BME280;22003;50.320;8.054;2022-12-17T15:04:13;100818.75;;;-6.61;100.00
35908;BME280;22003;50.320;8.054;2022-12-17T15:06:39;100829.31;;;-6.35;100.00
35908;BME280;22003;50.320;8.054;2022-12-17T15:09:04;100778.44;;;-6.56;100.00
35908;BME280;22003;50.320;8.054;2022-12-17T15:11:30;100816.31;;;-6.49;100.00
35908;BME280;22003;50.320;8.054;2022-12-17T15:13:55;100830.13;;;-6.44;100.00
35908;BME280;22003;50.320;8.054;2022-12-17T15:16:20;100821.22;;;-6.75;100.00
35908;BME280;22003;50.320;8.054;2022-12-17T15:18:45;100809.50;;;-6.42;100.00
35908;BME280;22003;50.320;8.054;2022-12-17T15:21:11;100831.59;;;-6.69;100.00
35908;BME280;22003;50.320;8.054;2022-12-17T15:23:40;100839.53;;;-6.49;100.00
35908;BME280;22003;50.320;8.054;2022-12-17T15:26:08;100832.59;;;-6.50;100.00
35908;BME280;22003;50.320;8.054;2022-12-17T15:28:33;100824.59;;;-6.82;100.00
35908;BME280;22003;50.320;8.054;2022-12-17T15:30:58;100839.13;;;-6.88;100.00
35908;BME280;22003;50.320;8.054;2022-12-17T15:33:24;100805.44;;;-7.07;100.00
35908;BME280;22003;50.320;8.054;2022-12-17T15:35:49;100844.09;;;-7.05;100.00
35908;BME280;22003;50.320;8.054;2022-12-17T15:38:14;100796.56;;;-7.36;100.00
35908;BME280;22003;50.320;8.054;2022-12-17T15:40:40;100842.44;;;-7.02;100.00
35908;BME280;22003;50.320;8.054;2022-12-17T15:43:05;100852.59;;;-7.12;100.00
35908;BME280;22003;50.320;8.054;2022-12-17T15:45:45;100860.53;;;-6.96;100.00
35908;BME280;22003;50.320;8.054;2022-12-17T15:48:13;100858.22;;;-6.71;100.00
35908;BME280;22003;50.320;8.054;2022-12-17T15:50:39;100814.25;;;-6.88;100.00
35908;BME280;22003;50.320;8.054;2022-12-17T15:53:04;100858.34;;;-6.56;100.00
35908;BME280;22003;50.320;8.054;2022-12-17T15:55:31;100859.94;;;-6.67;100.00
35908;BME280;22003;50.320;8.054;2022-12-17T15:57:56;100874.03;;;-6.31;100.00
35908;BME280;22003;50.320;8.054;2022-12-17T16:00:22;100873.91;;;-6.47;100.00
35908;BME280;22003;50.320;8.054;2022-12-17T16:02:48;100869.09;;;-6.95;100.00
35908;BME280;22003;50.320;8.054;2022-12-17T16:05:14;100858.16;;;-6.77;100.00
35908;BME280;22003;50.320;8.054;2022-12-17T16:07:40;100877.22;;;-6.60;100.00
35908;BME280;22003;50.320;8.054;2022-12-17T16:10:07;100882.34;;;-6.63;100.00
35908;BME280;22003;50.320;8.054;2022-12-17T16:12:33;100861.81;;;-6.51;100.00
35908;BME280;22003;50.320;8.054;2022-12-17T16:14:58;100863.38;;;-6.71;100.00
35908;BME280;22003;50.320;8.054;2022-12-17T16:17:23;100889.41;;;-6.42;100.00
35908;BME280;22003;50.320;8.054;2022-12-17T16:19:49;100859.88;;;-6.76;100.00
35908;BME280;22003;50.320;8.054;2022-12-17T16:22:14;100894.41;;;-6.59;100.00
35908;BME280;22003;50.320;8.054;2022-12-17T16:24:40;100892.56;;;-6.71;100.00
35908;BME280;22003;50.320;8.054;2022-12-17T16:27:06;100887.72;;;-6.39;100.00
35908;BME280;22003;50.320;8.054;2022-12-17T16:29:31;100892.81;;;-6.49;100.00
35908;BME280;22003;50.320;8.054;2022-12-17T16:31:56;100855.59;;;-6.77;100.00
35908;BME280;22003;50.320;8.054;2022-12-17T16:34:22;100887.50;;;-6.63;100.00
35908;BME280;22003;50.320;8.054;2022-12-17T16:36:47;100851.44;;;-6.60;100.00
35908;BME280;22003;50.320;8.054;2022-12-17T16:39:17;100873.63;;;-6.77;100.00
35908;BME280;22003;50.320;8.054;2022-12-17T16:41:43;100884.91;;;-6.66;100.00
35908;BME280;22003;50.320;8.054;2022-12-17T16:44:09;100884.16;;;-6.53;100.00
35908;BME280;22003;50.320;8.054;2022-12-17T16:46:36;100896.88;;;-6.70;100.00
35908;BME280;22003;50.320;8.054;2022-12-17T16:49:05;100903.63;;;-6.81;100.00
35908;BME280;22003;50.320;8.054;2022-12-17T16:51:31;100861.31;;;-7.00;100.00
35908;BME280;22003;50.320;8.054;2022-12-17T16:53:58;100908.13;;;-6.63;100.00
35908;BME280;22003;50.320;8.054;2022-12-17T16:56:26;100919.28;;;-6.64;100.00
35908;BME280;22003;50.320;8.054;2022-12-17T16:58:53;100921.06;;;-6.58;100.00
35908;BME280;22003;50.320;8.054;2022-12-17T17:01:20;100911.25;;;-6.88;100.00
35908;BME280;22003;50.320;8.054;2022-12-17T17:03:47;100907.53;;;-7.15;100.00
35908;BME280;22003;50.320;8.054;2022-12-17T17:06:13;100918.19;;;-6.84;100.00
35908;BME280;22003;50.320;8.054;2022-12-17T17:08:38;100890.75;;;-6.79;100.00
35908;BME280;22003;50.320;8.054;2022-12-17T17:11:13;100912.56;;;-6.48;100.00
35908;BME280;22003;50.320;8.054;2022-12-17T17:13:40;100897.75;;;-6.69;100.00
35908;BME280;22003;50.320;8.054;2022-12-17T17:16:07;100916.63;;;-6.69;100.00
35908;BME280;22003;50.320;8.054;2022-12-17T17:18:33;100872.47;;;-7.04;100.00
35908;BME280;22003;50.320;8.054;2022-12-17T17:23:44;100918.34;;;-6.69;100.00
35908;BME280;22003;50.320;8.054;2022-12-17T17:26:10;100939.91;;;-6.62;100.00
35908;BME280;22003;50.320;8.054;2022-12-17T17:28:39;100815.44;;;-7.37;100.00
35908;BME280;22003;50.320;8.054;2022-12-17T17:31:10;100925.25;;;-6.67;100.00
35908;BME280;22003;50.320;8.054;2022-12-17T17:33:38;100927.13;;;-6.55;100.00
35908;BME280;22003;50.320;8.054;2022-12-17T17:36:05;100931.97;;;-6.79;100.00
35908;BME280;22003;50.320;8.054;2022-12-17T17:38:35;100927.00;;;-6.64;100.00
35908;BME280;22003;50.320;8.054;2022-12-17T17:41:02;100928.66;;;-6.68;100.00
35908;BME280;22003;50.320;8.054;2022-12-17T17:43:28;100927.06;;;-6.59;100.00
35908;BME280;22003;50.320;8.054;2022-12-17T17:45:53;100926.16;;;-6.65;100.00
35908;BME280;22003;50.320;8.054;2022-12-17T17:48:20;100876.50;;;-7.23;100.00
35908;BME280;22003;50.320;8.054;2022-12-17T17:51:04;100922.72;;;-6.63;100.00
35908;BME280;22003;50.320;8.054;2022-12-17T17:53:30;100874.88;;;-7.18;100.00
35908;BME280;22003;50.320;8.054;2022-12-17T17:56:02;100932.84;;;-6.79;100.00
35908;BME280;22003;50.320;8.054;2022-12-17T17:58:28;100906.09;;;-6.88;100.00
35908;BME280;22003;50.320;8.054;2022-12-17T18:00:53;100925.00;;;-6.89;100.00
35908;BME280;22003;50.320;8.054;2022-12-17T18:03:18;100927.88;;;-6.62;100.00
35908;BME280;22003;50.320;8.054;2022-12-17T18:05:44;100926.91;;;-6.73;100.00
35908;BME280;22003;50.320;8.054;2022-12-17T18:08:09;100884.38;;;-7.12;100.00
35908;BME280;22003;50.320;8.054;2022-12-17T18:10:34;100934.63;;;-6.75;100.00
35908;BME280;22003;50.320;8.054;2022-12-17T18:12:59;100935.72;;;-6.51;100.00
35908;BME280;22003;50.320;8.054;2022-12-17T18:15:43;100930.22;;;-6.83;100.00
35908;BME280;22003;50.320;8.054;2022-12-17T18:18:09;100923.38;;;-6.81;100.00
35908;BME280;22003;50.320;8.054;2022-12-17T18:20:34;100917.06;;;-7.06;100.00
35908;BME280;22003;50.320;8.054;2022-12-17T18:22:59;100929.28;;;-6.88;100.00
35908;BME280;22003;50.320;8.054;2022-12-17T18:25:25;100936.13;;;-6.94;100.00
35908;BME280;22003;50.320;8.054;2022-12-17T18:27:51;100940.44;;;-6.89;100.00
35908;BME280;22003;50.320;8.054;2022-12-17T18:30:17;100918.75;;;-7.10;100.00
35908;BME280;22003;50.320;8.054;2022-12-17T18:32:42;100938.25;;;-6.57;100.00
35908;BME280;22003;50.320;8.054;2022-12-17T18:35:08;100888.91;;;-6.93;100.00
35908;BME280;22003;50.320;8.054;2022-12-17T18:37:34;100938.34;;;-6.48;100.00
35908;BME280;22003;50.320;8.054;2022-12-17T18:39:59;100946.44;;;-6.92;100.00
35908;BME280;22003;50.320;8.054;2022-12-17T18:42:24;100949.00;;;-6.94;100.00
35908;BME280;22003;50.320;8.054;2022-12-17T18:45:12;100950.06;;;-6.75;100.00
35908;BME280;22003;50.320;8.054;2022-12-17T18:47:37;100927.63;;;-6.86;100.00
35908;BME280;22003;50.320;8.054;2022-12-17T18:50:03;100934.78;;;-6.59;100.00
35908;BME280;22003;50.320;8.054;2022-12-17T18:52:28;100944.19;;;-6.66;100.00
35908;BME280;22003;50.320;8.054;2022-12-17T18:54:53;100940.69;;;-6.71;100.00
35908;BME280;22003;50.320;8.054;2022-12-17T18:57:18;100928.22;;;-7.07;100.00
35908;BME280;22003;50.320;8.054;2022-12-17T18:59:44;100919.69;;;-7.03;100.00
35908;BME280;22003;50.320;8.054;2022-12-17T19:02:12;100909.31;;;-7.09;100.00
35908;BME280;22003;50.320;8.054;2022-12-17T19:04:37;100942.94;;;-6.96;100.00
35908;BME280;22003;50.320;8.054;2022-12-17T19:07:03;100952.25;;;-7.07;100.00
35908;BME280;22003;50.320;8.054;2022-12-17T19:09:30;100947.50;;;-6.75;100.00
35908;BME280;22003;50.320;8.054;2022-12-17T19:11:59;100906.66;;;-7.15;100.00
35908;BME280;22003;50.320;8.054;2022-12-17T19:14:25;100956.03;;;-6.80;100.00
35908;BME280;22003;50.320;8.054;2022-12-17T19:16:51;100954.38;;;-6.72;100.00
35908;BME280;22003;50.320;8.054;2022-12-17T19:19:17;100937.91;;;-6.88;100.00
35908;BME280;22003;50.320;8.054;2022-12-17T19:21:43;100944.72;;;-6.92;100.00
35908;BME280;22003;50.320;8.054;2022-12-17T19:24:12;100962.56;;;-7.08;100.00
35908;BME280;22003;50.320;8.054;2022-12-17T19:26:37;100945.38;;;-7.08;100.00
35908;BME280;22003;50.320;8.054;2022-12-17T19:29:03;100961.13;;;-6.83;100.00
35908;BME280;22003;50.320;8.054;2022-12-17T19:31:30;100960.97;;;-6.96;100.00
35908;BME280;22003;50.320;8.054;2022-12-17T19:34:00;100946.38;;;-6.95;100.00